sensor_id;sensor_type;location;lat;lon;timestamp;temperature;humidity
18225;DHT22;9237;48.590;8.854;2023-11-19T00:02:21;7.00;99.90
18225;DHT22;9237;48.590;8.854;2023-11-19T00:04:49;7.00;99.90
18225;DHT22;9237;48.590;8.854;2023-11-19T00:07:16;7.00;99.90
18225;DHT22;9237;48.590;8.854;2023-11-19T00:09:43;7.00;99.90
18225;DHT22;9237;48.590;8.854;2023-11-19T00:12:09;7.00;99.90
18225;DHT22;9237;48.590;8.854;2023-11-19T00:14:36;7.00;99.90
18225;DHT22;9237;48.590;8.854;2023-11-19T00:17:03;7.00;99.90
18225;DHT22;9237;48.590;8.854;2023-11-19T00:19:30;7.00;99.90
18225;DHT22;9237;48.590;8.854;2023-11-19T00:21:58;7.00;99.90
18225;DHT22;9237;48.590;8.854;2023-11-19T00:24:28;7.00;99.90
18225;DHT22;9237;48.590;8.854;2023-11-19T00:26:55;7.00;99.90
18225;DHT22;9237;48.590;8.854;2023-11-19T00:29:22;7.00;99.90
18225;DHT22;9237;48.590;8.854;2023-11-19T00:31:49;7.10;99.90
18225;DHT22;9237;48.590;8.854;2023-11-19T00:34:15;7.20;99.90
18225;DHT22;9237;48.590;8.854;2023-11-19T00:36:45;7.20;99.90
18225;DHT22;9237;48.590;8.854;2023-11-19T00:39:13;7.20;99.90
18225;DHT22;9237;48.590;8.854;2023-11-19T00:41:41;7.20;99.90
18225;DHT22;9237;48.590;8.854;2023-11-19T00:44:08;7.20;99.90
18225;DHT22;9237;48.590;8.854;2023-11-19T00:46:34;7.20;99.90
18225;DHT22;9237;48.590;8.854;2023-11-19T00:49:02;7.20;99.90
18225;DHT22;9237;48.590;8.854;2023-11-19T00:51:29;7.20;99.90
18225;DHT22;9237;48.590;8.854;2023-11-19T00:53:56;7.20;99.90
18225;DHT22;9237;48.590;8.854;2023-11-19T00:56:25;7.20;99.90
18225;DHT22;9237;48.590;8.854;2023-11-19T00:58:53;7.30;99.90
18225;DHT22;9237;48.590;8.854;2023-11-19T01:01:21;7.30;99.90
18225;DHT22;9237;48.590;8.854;2023-11-19T01:03:48;7.30;99.90
18225;DHT22;9237;48.590;8.854;2023-11-19T01:06:15;7.30;99.90
18225;DHT22;9237;48.590;8.854;2023-11-19T01:08:42;7.30;99.90
18225;DHT22;9237;48.590;8.854;2023-11-19T01:11:19;7.30;99.90
18225;DHT22;9237;48.590;8.854;2023-11-19T01:13:48;7.30;99.90
18225;DHT22;9237;48.590;8.854;2023-11-19T01:16:15;7.40;99.90
18225;DHT22;9237;48.590;8.854;2023-11-19T01:18:42;7.40;99.90
18225;DHT22;9237;48.590;8.854;2023-11-19T01:21:09;7.40;99.90
18225;DHT22;9237;48.590;8.854;2023-11-19T01:23:36;7.50;99.90
18225;DHT22;9237;48.590;8.854;2023-11-19T01:26:03;7.40;99.90
18225;DHT22;9237;48.590;8.854;2023-11-19T01:28:30;7.50;99.90
18225;DHT22;9237;48.590;8.854;2023-11-19T01:30:58;7.50;99.90
18225;DHT22;9237;48.590;8.854;2023-11-19T01:33:25;7.50;99.90
18225;DHT22;9237;48.590;8.854;2023-11-19T01:35:53;7.50;99.90
18225;DHT22;9237;48.590;8.854;2023-11-19T01:38:20;7.50;99.90
18225;DHT22;9237;48.590;8.854;2023-11-19T01:40:46;7.50;99.90
18225;DHT22;9237;48.590;8.854;2023-11-19T01:43:31;7.50;99.90
18225;DHT22;9237;48.590;8.854;2023-11-19T01:46:00;7.50;99.90
18225;DHT22;9237;48.590;8.854;2023-11-19T01:48:27;7.50;99.90
18225;DHT22;9237;48.590;8.854;2023-11-19T01:50:54;7.00;99.90
18225;DHT22;9237;48.590;8.854;2023-11-19T01:53:21;7.60;99.90
18225;DHT22;9237;48.590;8.854;2023-11-19T01:55:48;7.60;99.90
18225;DHT22;9237;48.590;8.854;2023-11-19T01:58:16;7.70;99.90
18225;DHT22;9237;48.590;8.854;2023-11-19T02:00:44;7.70;99.90
18225;DHT22;9237;48.590;8.854;2023-11-19T02:03:14;7.70;99.90
18225;DHT22;9237;48.590;8.854;2023-11-19T02:05:41;7.80;99.90
18225;DHT22;9237;48.590;8.854;2023-11-19T02:08:08;7.80;99.90
18225;DHT22;9237;48.590;8.854;2023-11-19T02:10:35;7.90;99.90
18225;DHT22;9237;48.590;8.854;2023-11-19T02:13:02;7.90;99.90
18225;DHT22;9237;48.590;8.854;2023-11-19T02:15:31;8.30;99.90
18225;DHT22;9237;48.590;8.854;2023-11-19T02:18:19;8.50;99.90
18225;DHT22;9237;48.590;8.854;2023-11-19T02:20:47;8.80;99.90
18225;DHT22;9237;48.590;8.854;2023-11-19T02:23:15;8.90;99.90
18225;DHT22;9237;48.590;8.854;2023-11-19T02:25:42;8.90;99.90
18225;DHT22;9237;48.590;8.854;2023-11-19T02:28:11;9.10;99.90
18225;DHT22;9237;48.590;8.854;2023-11-19T02:30:38;9.20;99.90
18225;DHT22;9237;48.590;8.854;2023-11-19T02:33:05;9.30;99.90
18225;DHT22;9237;48.590;8.854;2023-11-19T02:35:32;9.40;99.90
18225;DHT22;9237;48.590;8.854;2023-11-19T02:37:59;9.40;99.90
18225;DHT22;9237;48.590;8.854;2023-11-19T02:40:26;9.50;99.90
18225;DHT22;9237;48.590;8.854;2023-11-19T02:42:53;9.50;99.90
18225;DHT22;9237;48.590;8.854;2023-11-19T02:45:23;9.50;99.90
18225;DHT22;9237;48.590;8.854;2023-11-19T02:47:50;9.50;99.90
18225;DHT22;9237;48.590;8.854;2023-11-19T02:50:17;9.50;99.90
18225;DHT22;9237;48.590;8.854;2023-11-19T02:52:51;9.60;99.90
18225;DHT22;9237;48.590;8.854;2023-11-19T02:55:18;9.60;99.90
18225;DHT22;9237;48.590;8.854;2023-11-19T02:57:46;9.60;99.90
18225;DHT22;9237;48.590;8.854;2023-11-19T03:00:15;9.60;99.90
18225;DHT22;9237;48.590;8.854;2023-11-19T03:02:43;9.60;99.90
18225;DHT22;9237;48.590;8.854;2023-11-19T03:05:11;9.60;99.90
18225;DHT22;9237;48.590;8.854;2023-11-19T03:07:40;9.70;99.90
18225;DHT22;9237;48.590;8.854;2023-11-19T03:10:08;9.80;99.90
18225;DHT22;9237;48.590;8.854;2023-11-19T03:12:38;9.70;99.90
18225;DHT22;9237;48.590;8.854;2023-11-19T03:15:05;9.70;99.90
18225;DHT22;9237;48.590;8.854;2023-11-19T03:17:32;9.70;99.90
18225;DHT22;9237;48.590;8.854;2023-11-19T03:20:00;9.70;99.90
18225;DHT22;9237;48.590;8.854;2023-11-19T03:22:27;9.70;99.90
18225;DHT22;9237;48.590;8.854;2023-11-19T03:24:54;9.70;99.90
18225;DHT22;9237;48.590;8.854;2023-11-19T03:27:21;9.70;99.90
18225;DHT22;9237;48.590;8.854;2023-11-19T03:29:48;9.70;99.90
18225;DHT22;9237;48.590;8.854;2023-11-19T03:32:15;9.70;99.90
18225;DHT22;9237;48.590;8.854;2023-11-19T03:34:41;9.70;99.90
18225;DHT22;9237;48.590;8.854;2023-11-19T03:37:09;9.70;99.90
18225;DHT22;9237;48.590;8.854;2023-11-19T03:39:36;9.70;99.90
18225;DHT22;9237;48.590;8.854;2023-11-19T03:42:03;9.70;99.90
18225;DHT22;9237;48.590;8.854;2023-11-19T03:44:30;9.70;99.90
18225;DHT22;9237;48.590;8.854;2023-11-19T03:46:57;9.70;99.90
18225;DHT22;9237;48.590;8.854;2023-11-19T03:49:24;9.60;99.90
18225;DHT22;9237;48.590;8.854;2023-11-19T03:51:51;9.70;99.90
18225;DHT22;9237;48.590;8.854;2023-11-19T03:54:19;9.60;99.90
18225;DHT22;9237;48.590;8.854;2023-11-19T03:56:45;9.60;99.90
18225;DHT22;9237;48.590;8.854;2023-11-19T03:59:12;9.60;99.90
18225;DHT22;9237;48.590;8.854;2023-11-19T04:01:40;9.60;99.90
18225;DHT22;9237;48.590;8.854;2023-11-19T04:04:07;9.70;99.90
18225;DHT22;9237;48.590;8.854;2023-11-19T04:06:34;9.60;99.90
18225;DHT22;9237;48.590;8.854;2023-11-19T04:09:01;9.70;99.90
18225;DHT22;9237;48.590;8.854;2023-11-19T04:11:29;9.70;99.90
18225;DHT22;9237;48.590;8.854;2023-11-19T04:13:56;9.70;99.90
18225;DHT22;9237;48.590;8.854;2023-11-19T04:16:26;9.70;99.90
18225;DHT22;9237;48.590;8.854;2023-11-19T04:18:54;9.70;99.90
18225;DHT22;9237;48.590;8.854;2023-11-19T04:21:21;9.80;99.90
18225;DHT22;9237;48.590;8.854;2023-11-19T04:23:48;9.80;99.90
18225;DHT22;9237;48.590;8.854;2023-11-19T04:26:15;9.70;99.90
18225;DHT22;9237;48.590;8.854;2023-11-19T04:28:43;9.70;99.90
18225;DHT22;9237;48.590;8.854;2023-11-19T04:31:10;9.70;99.90
18225;DHT22;9237;48.590;8.854;2023-11-19T04:33:37;9.70;99.90
18225;DHT22;9237;48.590;8.854;2023-11-19T04:36:04;9.80;99.90
18225;DHT22;9237;48.590;8.854;2023-11-19T04:38:31;9.80;99.90
18225;DHT22;9237;48.590;8.854;2023-11-19T04:40:58;9.90;99.90
18225;DHT22;9237;48.590;8.854;2023-11-19T04:43:25;9.80;99.90
18225;DHT22;9237;48.590;8.854;2023-11-19T04:45:53;9.90;99.90
18225;DHT22;9237;48.590;8.854;2023-11-19T04:48:20;9.90;99.90
18225;DHT22;9237;48.590;8.854;2023-11-19T04:50:47;9.90;99.90
18225;DHT22;9237;48.590;8.854;2023-11-19T04:53:14;9.90;99.90
18225;DHT22;9237;48.590;8.854;2023-11-19T04:55:41;9.90;99.90
18225;DHT22;9237;48.590;8.854;2023-11-19T04:58:08;10.00;99.90
18225;DHT22;9237;48.590;8.854;2023-11-19T05:00:34;10.00;99.90
18225;DHT22;9237;48.590;8.854;2023-11-19T05:03:02;10.00;99.90
18225;DHT22;9237;48.590;8.854;2023-11-19T05:05:29;10.00;99.90
18225;DHT22;9237;48.590;8.854;2023-11-19T05:07:56;10.10;99.90
18225;DHT22;9237;48.590;8.854;2023-11-19T05:10:23;10.10;99.90
18225;DHT22;9237;48.590;8.854;2023-11-19T05:12:50;10.10;99.90
18225;DHT22;9237;48.590;8.854;2023-11-19T05:15:17;10.20;99.90
18225;DHT22;9237;48.590;8.854;2023-11-19T05:17:44;10.10;99.90
18225;DHT22;9237;48.590;8.854;2023-11-19T05:20:12;10.10;99.90
18225;DHT22;9237;48.590;8.854;2023-11-19T05:22:40;10.20;99.90
18225;DHT22;9237;48.590;8.854;2023-11-19T05:25:07;10.20;99.90
18225;DHT22;9237;48.590;8.854;2023-11-19T05:27:34;10.10;99.90
18225;DHT22;9237;48.590;8.854;2023-11-19T05:30:01;10.10;99.90
18225;DHT22;9237;48.590;8.854;2023-11-19T05:32:28;10.10;99.90
18225;DHT22;9237;48.590;8.854;2023-11-19T05:34:55;10.10;99.90
18225;DHT22;9237;48.590;8.854;2023-11-19T05:37:23;10.20;99.90
18225;DHT22;9237;48.590;8.854;2023-11-19T05:39:50;10.20;99.90
18225;DHT22;9237;48.590;8.854;2023-11-19T05:42:17;10.10;99.90
18225;DHT22;9237;48.590;8.854;2023-11-19T05:44:44;10.10;99.90
18225;DHT22;9237;48.590;8.854;2023-11-19T05:47:11;10.10;99.90
18225;DHT22;9237;48.590;8.854;2023-11-19T05:49:38;10.20;99.90
18225;DHT22;9237;48.590;8.854;2023-11-19T05:52:05;10.20;99.90
18225;DHT22;9237;48.590;8.854;2023-11-19T05:54:34;10.20;99.90
18225;DHT22;9237;48.590;8.854;2023-11-19T05:57:04;10.20;99.90
18225;DHT22;9237;48.590;8.854;2023-11-19T05:59:30;10.20;99.90
18225;DHT22;9237;48.590;8.854;2023-11-19T06:01:58;10.20;99.90
18225;DHT22;9237;48.590;8.854;2023-11-19T06:04:25;10.20;99.90
18225;DHT22;9237;48.590;8.854;2023-11-19T06:06:52;10.30;99.90
18225;DHT22;9237;48.590;8.854;2023-11-19T06:09:20;10.20;99.90
18225;DHT22;9237;48.590;8.854;2023-11-19T06:11:50;10.20;99.90
18225;DHT22;9237;48.590;8.854;2023-11-19T06:14:17;10.20;99.90
18225;DHT22;9237;48.590;8.854;2023-11-19T06:16:44;10.20;99.90
18225;DHT22;9237;48.590;8.854;2023-11-19T06:19:11;10.20;99.90
18225;DHT22;9237;48.590;8.854;2023-11-19T06:21:38;10.20;99.90
18225;DHT22;9237;48.590;8.854;2023-11-19T06:24:05;10.20;99.90
18225;DHT22;9237;48.590;8.854;2023-11-19T06:26:32;10.10;99.90
18225;DHT22;9237;48.590;8.854;2023-11-19T06:29:00;10.10;99.90
18225;DHT22;9237;48.590;8.854;2023-11-19T06:31:27;10.10;99.90
18225;DHT22;9237;48.590;8.854;2023-11-19T06:33:54;10.10;99.90
18225;DHT22;9237;48.590;8.854;2023-11-19T06:36:21;10.00;99.90
18225;DHT22;9237;48.590;8.854;2023-11-19T06:38:48;10.10;99.90
18225;DHT22;9237;48.590;8.854;2023-11-19T06:41:14;10.10;99.90
18225;DHT22;9237;48.590;8.854;2023-11-19T06:43:41;10.10;99.90
18225;DHT22;9237;48.590;8.854;2023-11-19T06:46:16;10.10;99.90
18225;DHT22;9237;48.590;8.854;2023-11-19T06:48:43;10.10;99.90
18225;DHT22;9237;48.590;8.854;2023-11-19T06:51:10;10.10;99.90
18225;DHT22;9237;48.590;8.854;2023-11-19T06:53:37;10.10;99.90
18225;DHT22;9237;48.590;8.854;2023-11-19T06:56:06;10.10;99.90
18225;DHT22;9237;48.590;8.854;2023-11-19T06:58:43;10.10;99.90
18225;DHT22;9237;48.590;8.854;2023-11-19T07:01:10;10.20;99.90
18225;DHT22;9237;48.590;8.854;2023-11-19T07:03:38;10.20;99.90
18225;DHT22;9237;48.590;8.854;2023-11-19T07:06:06;10.20;99.90
18225;DHT22;9237;48.590;8.854;2023-11-19T07:08:32;10.20;99.90
18225;DHT22;9237;48.590;8.854;2023-11-19T07:11:00;10.20;99.90
18225;DHT22;9237;48.590;8.854;2023-11-19T07:13:26;10.20;99.90
18225;DHT22;9237;48.590;8.854;2023-11-19T07:15:53;10.20;99.90
18225;DHT22;9237;48.590;8.854;2023-11-19T07:18:20;10.30;99.90
18225;DHT22;9237;48.590;8.854;2023-11-19T07:20:48;10.30;99.90
18225;DHT22;9237;48.590;8.854;2023-11-19T07:23:15;10.30;99.90
18225;DHT22;9237;48.590;8.854;2023-11-19T07:25:42;10.30;99.90
18225;DHT22;9237;48.590;8.854;2023-11-19T07:28:10;10.30;99.90
18225;DHT22;9237;48.590;8.854;2023-11-19T07:30:38;10.30;99.90
18225;DHT22;9237;48.590;8.854;2023-11-19T07:33:05;10.30;99.90
18225;DHT22;9237;48.590;8.854;2023-11-19T07:35:32;10.30;99.90
18225;DHT22;9237;48.590;8.854;2023-11-19T07:38:00;10.40;99.90
18225;DHT22;9237;48.590;8.854;2023-11-19T07:40:27;10.30;99.90
18225;DHT22;9237;48.590;8.854;2023-11-19T07:42:54;10.40;99.90
18225;DHT22;9237;48.590;8.854;2023-11-19T07:45:21;10.40;99.90
18225;DHT22;9237;48.590;8.854;2023-11-19T07:47:48;10.40;99.90
18225;DHT22;9237;48.590;8.854;2023-11-19T07:50:16;10.40;99.90
18225;DHT22;9237;48.590;8.854;2023-11-19T07:52:45;10.40;99.90
18225;DHT22;9237;48.590;8.854;2023-11-19T07:55:14;10.50;99.90
18225;DHT22;9237;48.590;8.854;2023-11-19T07:57:40;10.40;99.90
18225;DHT22;9237;48.590;8.854;2023-11-19T08:00:08;10.40;99.90
18225;DHT22;9237;48.590;8.854;2023-11-19T08:02:37;10.40;99.90
18225;DHT22;9237;48.590;8.854;2023-11-19T08:05:05;10.50;99.90
18225;DHT22;9237;48.590;8.854;2023-11-19T08:07:32;10.50;99.90
18225;DHT22;9237;48.590;8.854;2023-11-19T08:09:58;10.50;99.90
18225;DHT22;9237;48.590;8.854;2023-11-19T08:12:27;10.50;99.90
18225;DHT22;9237;48.590;8.854;2023-11-19T08:14:54;10.50;99.90
18225;DHT22;9237;48.590;8.854;2023-11-19T08:17:21;10.50;99.90
18225;DHT22;9237;48.590;8.854;2023-11-19T08:19:48;10.50;99.90
18225;DHT22;9237;48.590;8.854;2023-11-19T08:22:15;10.50;99.90
18225;DHT22;9237;48.590;8.854;2023-11-19T08:24:43;10.50;99.90
18225;DHT22;9237;48.590;8.854;2023-11-19T08:27:09;10.50;99.90
18225;DHT22;9237;48.590;8.854;2023-11-19T08:29:37;10.50;99.90
18225;DHT22;9237;48.590;8.854;2023-11-19T08:32:05;10.50;99.90
18225;DHT22;9237;48.590;8.854;2023-11-19T08:34:32;10.50;99.90
18225;DHT22;9237;48.590;8.854;2023-11-19T08:36:59;10.60;99.90
18225;DHT22;9237;48.590;8.854;2023-11-19T08:39:26;10.60;99.90
18225;DHT22;9237;48.590;8.854;2023-11-19T08:41:53;10.70;99.90
18225;DHT22;9237;48.590;8.854;2023-11-19T08:44:21;10.80;99.90
18225;DHT22;9237;48.590;8.854;2023-11-19T08:46:49;10.90;99.90
18225;DHT22;9237;48.590;8.854;2023-11-19T08:49:16;10.90;99.90
18225;DHT22;9237;48.590;8.854;2023-11-19T08:51:43;11.00;99.90
18225;DHT22;9237;48.590;8.854;2023-11-19T08:54:11;11.10;99.90
18225;DHT22;9237;48.590;8.854;2023-11-19T08:56:38;11.20;99.90
18225;DHT22;9237;48.590;8.854;2023-11-19T08:59:06;11.40;99.90
18225;DHT22;9237;48.590;8.854;2023-11-19T09:01:33;11.60;99.90
18225;DHT22;9237;48.590;8.854;2023-11-19T09:04:01;11.70;99.90
18225;DHT22;9237;48.590;8.854;2023-11-19T09:06:28;11.60;99.90
18225;DHT22;9237;48.590;8.854;2023-11-19T09:08:55;11.60;99.90
18225;DHT22;9237;48.590;8.854;2023-11-19T09:11:26;11.70;99.90
18225;DHT22;9237;48.590;8.854;2023-11-19T09:13:52;11.70;99.90
18225;DHT22;9237;48.590;8.854;2023-11-19T09:16:19;11.70;99.90
18225;DHT22;9237;48.590;8.854;2023-11-19T09:18:47;11.80;99.90
18225;DHT22;9237;48.590;8.854;2023-11-19T09:21:15;11.70;99.90
18225;DHT22;9237;48.590;8.854;2023-11-19T09:23:42;11.80;99.90
18225;DHT22;9237;48.590;8.854;2023-11-19T09:26:09;11.80;99.90
18225;DHT22;9237;48.590;8.854;2023-11-19T09:28:36;11.90;99.90
18225;DHT22;9237;48.590;8.854;2023-11-19T09:31:12;12.00;99.90
18225;DHT22;9237;48.590;8.854;2023-11-19T09:33:39;12.10;99.90
18225;DHT22;9237;48.590;8.854;2023-11-19T09:36:06;12.20;99.90
18225;DHT22;9237;48.590;8.854;2023-11-19T09:38:34;12.40;99.90
18225;DHT22;9237;48.590;8.854;2023-11-19T09:41:04;12.40;99.90
18225;DHT22;9237;48.590;8.854;2023-11-19T09:43:33;12.50;99.90
18225;DHT22;9237;48.590;8.854;2023-11-19T09:46:04;12.50;99.90
18225;DHT22;9237;48.590;8.854;2023-11-19T09:48:32;12.60;99.90
18225;DHT22;9237;48.590;8.854;2023-11-19T09:51:00;12.70;99.90
18225;DHT22;9237;48.590;8.854;2023-11-19T09:53:27;12.80;99.90
18225;DHT22;9237;48.590;8.854;2023-11-19T09:55:55;12.80;99.90
18225;DHT22;9237;48.590;8.854;2023-11-19T09:58:22;12.80;99.90
18225;DHT22;9237;48.590;8.854;2023-11-19T10:00:50;12.80;99.90
18225;DHT22;9237;48.590;8.854;2023-11-19T10:03:17;12.80;99.90
18225;DHT22;9237;48.590;8.854;2023-11-19T10:05:44;12.90;99.90
18225;DHT22;9237;48.590;8.854;2023-11-19T10:08:11;12.90;99.90
18225;DHT22;9237;48.590;8.854;2023-11-19T10:10:39;13.10;99.90
18225;DHT22;9237;48.590;8.854;2023-11-19T10:13:07;13.10;99.90
18225;DHT22;9237;48.590;8.854;2023-11-19T10:15:37;13.20;99.90
18225;DHT22;9237;48.590;8.854;2023-11-19T10:18:04;13.30;99.90
18225;DHT22;9237;48.590;8.854;2023-11-19T10:20:35;13.40;99.90
18225;DHT22;9237;48.590;8.854;2023-11-19T10:23:02;13.30;99.90
18225;DHT22;9237;48.590;8.854;2023-11-19T10:25:29;13.30;99.90
18225;DHT22;9237;48.590;8.854;2023-11-19T10:27:57;13.50;99.90
18225;DHT22;9237;48.590;8.854;2023-11-19T10:30:26;13.60;99.90
18225;DHT22;9237;48.590;8.854;2023-11-19T10:33:03;13.70;99.90
18225;DHT22;9237;48.590;8.854;2023-11-19T10:35:30;13.90;99.90
18225;DHT22;9237;48.590;8.854;2023-11-19T10:37:59;13.90;99.90
18225;DHT22;9237;48.590;8.854;2023-11-19T10:40:38;14.00;99.90
18225;DHT22;9237;48.590;8.854;2023-11-19T10:43:06;14.10;99.90
18225;DHT22;9237;48.590;8.854;2023-11-19T10:45:35;14.20;99.90
18225;DHT22;9237;48.590;8.854;2023-11-19T10:48:03;14.30;99.90
18225;DHT22;9237;48.590;8.854;2023-11-19T10:50:32;14.30;99.90
18225;DHT22;9237;48.590;8.854;2023-11-19T10:52:59;14.20;99.90
18225;DHT22;9237;48.590;8.854;2023-11-19T10:55:28;14.30;99.90
18225;DHT22;9237;48.590;8.854;2023-11-19T10:57:59;14.30;99.90
18225;DHT22;9237;48.590;8.854;2023-11-19T11:00:26;14.30;99.90
18225;DHT22;9237;48.590;8.854;2023-11-19T11:03:00;14.30;99.90
18225;DHT22;9237;48.590;8.854;2023-11-19T11:05:27;14.40;99.90
18225;DHT22;9237;48.590;8.854;2023-11-19T11:07:55;14.40;99.90
18225;DHT22;9237;48.590;8.854;2023-11-19T11:10:25;14.40;99.90
18225;DHT22;9237;48.590;8.854;2023-11-19T11:12:52;14.40;99.90
18225;DHT22;9237;48.590;8.854;2023-11-19T11:15:25;14.40;99.90
18225;DHT22;9237;48.590;8.854;2023-11-19T11:17:58;14.40;99.90
18225;DHT22;9237;48.590;8.854;2023-11-19T11:20:27;14.50;99.90
18225;DHT22;9237;48.590;8.854;2023-11-19T11:23:22;14.80;99.90
18225;DHT22;9237;48.590;8.854;2023-11-19T11:26:02;15.00;99.90
18225;DHT22;9237;48.590;8.854;2023-11-19T11:28:37;15.00;99.90
18225;DHT22;9237;48.590;8.854;2023-11-19T11:31:13;15.00;99.90
18225;DHT22;9237;48.590;8.854;2023-11-19T11:34:05;14.90;99.90
18225;DHT22;9237;48.590;8.854;2023-11-19T11:36:42;14.80;99.90
18225;DHT22;9237;48.590;8.854;2023-11-19T11:39:11;14.80;99.90
18225;DHT22;9237;48.590;8.854;2023-11-19T11:41:38;14.90;99.90
18225;DHT22;9237;48.590;8.854;2023-11-19T11:44:05;15.00;99.90
18225;DHT22;9237;48.590;8.854;2023-11-19T11:46:56;15.10;99.90
18225;DHT22;9237;48.590;8.854;2023-11-19T11:49:28;15.10;99.90
18225;DHT22;9237;48.590;8.854;2023-11-19T11:52:00;14.90;99.90
18225;DHT22;9237;48.590;8.854;2023-11-19T11:54:29;14.90;99.90
18225;DHT22;9237;48.590;8.854;2023-11-19T11:57:03;14.80;99.90
18225;DHT22;9237;48.590;8.854;2023-11-19T11:59:37;14.70;99.90
18225;DHT22;9237;48.590;8.854;2023-11-19T12:02:10;14.70;99.90
18225;DHT22;9237;48.590;8.854;2023-11-19T12:04:39;14.60;99.90
18225;DHT22;9237;48.590;8.854;2023-11-19T12:07:08;14.60;99.90
18225;DHT22;9237;48.590;8.854;2023-11-19T12:09:36;14.70;99.90
18225;DHT22;9237;48.590;8.854;2023-11-19T12:12:18;14.70;99.90
18225;DHT22;9237;48.590;8.854;2023-11-19T12:15:07;14.70;99.90
18225;DHT22;9237;48.590;8.854;2023-11-19T12:17:44;14.70;99.90
18225;DHT22;9237;48.590;8.854;2023-11-19T12:20:17;14.80;99.90
18225;DHT22;9237;48.590;8.854;2023-11-19T12:22:45;14.80;99.90
18225;DHT22;9237;48.590;8.854;2023-11-19T12:25:13;14.70;99.90
18225;DHT22;9237;48.590;8.854;2023-11-19T12:27:43;14.80;99.90
18225;DHT22;9237;48.590;8.854;2023-11-19T12:30:11;14.80;99.90
18225;DHT22;9237;48.590;8.854;2023-11-19T12:32:44;14.80;99.90
18225;DHT22;9237;48.590;8.854;2023-11-19T12:35:12;14.80;99.90
18225;DHT22;9237;48.590;8.854;2023-11-19T12:37:41;14.80;99.90
18225;DHT22;9237;48.590;8.854;2023-11-19T12:40:16;14.70;99.90
18225;DHT22;9237;48.590;8.854;2023-11-19T12:42:43;14.60;99.90
18225;DHT22;9237;48.590;8.854;2023-11-19T12:45:10;14.60;99.90
18225;DHT22;9237;48.590;8.854;2023-11-19T12:47:38;14.60;99.90
18225;DHT22;9237;48.590;8.854;2023-11-19T12:50:05;14.50;99.90
18225;DHT22;9237;48.590;8.854;2023-11-19T12:52:33;14.50;99.90
18225;DHT22;9237;48.590;8.854;2023-11-19T12:55:02;14.50;99.90
18225;DHT22;9237;48.590;8.854;2023-11-19T12:57:39;14.60;99.90
18225;DHT22;9237;48.590;8.854;2023-11-19T13:00:07;14.80;99.90
18225;DHT22;9237;48.590;8.854;2023-11-19T13:02:46;15.00;99.90
18225;DHT22;9237;48.590;8.854;2023-11-19T13:05:25;15.10;99.90
18225;DHT22;9237;48.590;8.854;2023-11-19T13:07:58;15.20;99.90
18225;DHT22;9237;48.590;8.854;2023-11-19T13:10:27;15.20;99.90
18225;DHT22;9237;48.590;8.854;2023-11-19T13:13:04;15.20;99.90
18225;DHT22;9237;48.590;8.854;2023-11-19T13:15:31;15.20;99.90
18225;DHT22;9237;48.590;8.854;2023-11-19T13:17:58;15.10;99.90
18225;DHT22;9237;48.590;8.854;2023-11-19T13:20:25;15.10;99.90
18225;DHT22;9237;48.590;8.854;2023-11-19T13:22:57;15.00;99.90
18225;DHT22;9237;48.590;8.854;2023-11-19T13:25:24;15.00;99.90
18225;DHT22;9237;48.590;8.854;2023-11-19T13:27:52;15.00;99.90
18225;DHT22;9237;48.590;8.854;2023-11-19T13:30:19;15.00;99.90
18225;DHT22;9237;48.590;8.854;2023-11-19T13:32:46;14.80;99.90
18225;DHT22;9237;48.590;8.854;2023-11-19T13:35:13;14.90;99.90
18225;DHT22;9237;48.590;8.854;2023-11-19T13:37:40;14.90;99.90
18225;DHT22;9237;48.590;8.854;2023-11-19T13:40:08;14.90;99.90
18225;DHT22;9237;48.590;8.854;2023-11-19T13:42:36;15.00;99.90
18225;DHT22;9237;48.590;8.854;2023-11-19T13:45:08;14.90;99.90
18225;DHT22;9237;48.590;8.854;2023-11-19T13:47:37;14.90;99.90
18225;DHT22;9237;48.590;8.854;2023-11-19T13:50:07;14.90;99.90
18225;DHT22;9237;48.590;8.854;2023-11-19T13:52:34;14.90;99.90
18225;DHT22;9237;48.590;8.854;2023-11-19T13:55:02;14.80;99.90
18225;DHT22;9237;48.590;8.854;2023-11-19T13:57:30;14.80;99.90
18225;DHT22;9237;48.590;8.854;2023-11-19T13:59:57;14.70;99.90
18225;DHT22;9237;48.590;8.854;2023-11-19T14:02:25;14.70;99.90
18225;DHT22;9237;48.590;8.854;2023-11-19T14:04:51;14.60;99.90
18225;DHT22;9237;48.590;8.854;2023-11-19T14:07:18;14.60;99.90
18225;DHT22;9237;48.590;8.854;2023-11-19T14:09:45;14.60;99.90
18225;DHT22;9237;48.590;8.854;2023-11-19T14:12:12;14.50;99.90
18225;DHT22;9237;48.590;8.854;2023-11-19T14:14:39;14.50;99.90
18225;DHT22;9237;48.590;8.854;2023-11-19T14:17:07;14.40;99.90
18225;DHT22;9237;48.590;8.854;2023-11-19T14:19:35;14.40;99.90
18225;DHT22;9237;48.590;8.854;2023-11-19T14:22:03;14.30;99.90
18225;DHT22;9237;48.590;8.854;2023-11-19T14:24:30;14.40;99.90
18225;DHT22;9237;48.590;8.854;2023-11-19T14:26:57;14.30;99.90
18225;DHT22;9237;48.590;8.854;2023-11-19T14:29:24;14.20;99.90
18225;DHT22;9237;48.590;8.854;2023-11-19T14:31:52;14.00;99.90
18225;DHT22;9237;48.590;8.854;2023-11-19T14:34:19;13.80;99.90
18225;DHT22;9237;48.590;8.854;2023-11-19T14:36:47;13.70;99.90
18225;DHT22;9237;48.590;8.854;2023-11-19T14:39:15;13.70;99.90
18225;DHT22;9237;48.590;8.854;2023-11-19T14:41:42;13.70;99.90
18225;DHT22;9237;48.590;8.854;2023-11-19T14:44:09;13.60;99.90
18225;DHT22;9237;48.590;8.854;2023-11-19T14:46:36;13.50;99.90
18225;DHT22;9237;48.590;8.854;2023-11-19T14:49:03;13.40;99.90
18225;DHT22;9237;48.590;8.854;2023-11-19T14:51:30;13.40;99.90
18225;DHT22;9237;48.590;8.854;2023-11-19T14:53:58;13.30;99.90
18225;DHT22;9237;48.590;8.854;2023-11-19T14:56:25;13.20;99.90
18225;DHT22;9237;48.590;8.854;2023-11-19T14:58:52;13.10;99.90
18225;DHT22;9237;48.590;8.854;2023-11-19T15:01:18;13.10;99.90
18225;DHT22;9237;48.590;8.854;2023-11-19T15:03:45;13.10;99.90
18225;DHT22;9237;48.590;8.854;2023-11-19T15:06:12;13.20;99.90
18225;DHT22;9237;48.590;8.854;2023-11-19T15:08:39;13.00;99.90
18225;DHT22;9237;48.590;8.854;2023-11-19T15:11:08;12.90;99.90
18225;DHT22;9237;48.590;8.854;2023-11-19T15:13:34;12.80;99.90
18225;DHT22;9237;48.590;8.854;2023-11-19T15:16:03;12.70;99.90
18225;DHT22;9237;48.590;8.854;2023-11-19T15:18:30;12.60;99.90
18225;DHT22;9237;48.590;8.854;2023-11-19T15:20:57;12.50;99.90
18225;DHT22;9237;48.590;8.854;2023-11-19T15:23:24;12.50;99.90
18225;DHT22;9237;48.590;8.854;2023-11-19T15:25:51;12.40;99.90
18225;DHT22;9237;48.590;8.854;2023-11-19T15:28:19;12.30;99.90
18225;DHT22;9237;48.590;8.854;2023-11-19T15:30:46;12.30;99.90
18225;DHT22;9237;48.590;8.854;2023-11-19T15:33:12;12.30;99.90
18225;DHT22;9237;48.590;8.854;2023-11-19T15:35:40;12.30;99.90
18225;DHT22;9237;48.590;8.854;2023-11-19T15:38:07;12.20;99.90
18225;DHT22;9237;48.590;8.854;2023-11-19T15:40:35;12.00;99.90
18225;DHT22;9237;48.590;8.854;2023-11-19T15:43:02;11.90;99.90
18225;DHT22;9237;48.590;8.854;2023-11-19T15:45:30;11.60;99.90
18225;DHT22;9237;48.590;8.854;2023-11-19T15:48:01;11.60;99.90
18225;DHT22;9237;48.590;8.854;2023-11-19T15:50:28;11.50;99.90
18225;DHT22;9237;48.590;8.854;2023-11-19T15:52:56;11.60;99.90
18225;DHT22;9237;48.590;8.854;2023-11-19T15:55:36;11.30;99.90
18225;DHT22;9237;48.590;8.854;2023-11-19T15:58:03;11.20;99.90